Friday, October 31, 2014, 6:31 AM EDT
Back to Local

KMTP, Montauk Airport

Location: Montauk, NY, United States Lat: 41.067
Local Time: 6:31 AM EDT (10:31 GMT) Lon: -71.917
Time Zone: US/Eastern Elev: 6 ft

Show me the last for .
Show Coded

Time T Td Feel RH Dir Speed Gust Alt SLP Vis Weather Sky Remarks
2014-10-31 05:54 50 42 47 74 10° 8 - 30.01 30.01 0 None
2014-10-31 04:54 50 41 47 71 20° 8 - 30.00 30.00 0 None
2014-10-31 02:54 50 40 47 68 360° 8 - 30.01 30.00 0 None
2014-10-31 01:54 51 40 - 65 350° 8 - 30.01 30.00 0 6-hr Min Temp (2am): 51.1°F
6-hr Max Temp (2am): 55.0°F
2014-10-31 00:54 51 39 - 63 340° 8 - 30.00 30.00 0 24-hr Min Temp (1am): 51.1°F
24-hr Max Temp (1am): 60.1°F
2014-10-30 23:54 53 38 - 56 350° 9 16 30.01 30.00 0 None
2014-10-30 22:54 53 37 - 54 340° 9 - 30.01 30.01 0 None
2014-10-30 21:54 54 36 - 50 340° 7 - 30.01 30.01 0 None
2014-10-30 20:54 54 36 - 50 340° 7 - 30.00 30.00 0 None
2014-10-30 19:54 55 37 - 50 330° 9 - 29.99 29.99 0 6-hr Min Temp (8pm): 55.0°F
6-hr Max Temp (8pm): 60.1°F
2014-10-30 18:54 56 38 - 50 330° 8 - 29.98 29.98 0 None
2014-10-30 17:54 56 41 - 57 Variable 3 - 29.97 29.96 0 None
2014-10-30 16:54 57 41 - 54 280° 6 - 29.95 29.95 0 None
2014-10-30 15:54 58 40 - 51 260° 7 - 29.95 29.95 0 None
2014-10-30 14:54 59 40 - 49 270° 6 - 29.95 29.94 0 None
2014-10-30 13:54 60 40 - 47 280° 6 - 29.95 29.95 0 6-hr Min Temp (2pm): 54.0°F
6-hr Max Temp (2pm): 60.1°F
2014-10-30 12:54 59 40 - 49 300° 7 - 29.96 29.96 0 None
2014-10-30 11:54 59 41 - 51 320° 6 - 29.97 29.97 0 None
2014-10-30 10:54 57 42 - 57 330° 8 - 29.98 29.98 0 None
2014-10-30 09:54 56 42 - 59 320° 8 - 29.98 29.98 0 None
2014-10-30 08:54 55 42 - 61 320° 8 - 29.98 29.98 0 None
2014-10-30 07:54 55 41 - 59 310° 7 - 29.97 29.97 0 24-hr Precip Total (8am): 0.01"
6-hr Min Temp (8am): 54.0°F
6-hr Max Temp (8am): 55.0°F
2014-10-30 06:54 54 41 - 61 330° 7 - 29.95 29.95 0 None

Support USWX by starting your Amazon purchase here.